createdAt,value
2023-05-31T00:01:10.213Z,26.50
2023-05-31T00:06:14.661Z,26.50
2023-05-31T00:11:17.529Z,26.50
2023-05-31T00:16:52.376Z,26.50
2023-05-31T00:21:45.361Z,26.50
2023-05-31T00:26:48.217Z,26.40
2023-05-31T00:31:51.065Z,26.40
2023-05-31T00:36:55.343Z,26.40
2023-05-31T00:41:58.243Z,26.30
2023-05-31T00:47:01.460Z,26.30
2023-05-31T00:52:06.371Z,26.20
2023-05-31T00:57:09.245Z,26.30
2023-05-31T01:02:13.404Z,26.20
2023-05-31T01:07:17.628Z,26.20
2023-05-31T01:12:25.833Z,26.10
2023-05-31T01:17:35.873Z,26.10
2023-05-31T01:22:59.206Z,26.10
2023-05-31T01:28:08.207Z,26.00
2023-05-31T01:33:12.308Z,26.00
2023-05-31T01:38:15.409Z,26.00
2023-05-31T01:43:20.332Z,26.00
2023-05-31T01:48:23.242Z,26.00
2023-05-31T01:53:26.302Z,25.90
2023-05-31T01:58:32.969Z,25.90
2023-05-31T02:03:36.071Z,25.80
2023-05-31T02:08:38.905Z,25.80
2023-05-31T02:13:43.093Z,25.70
2023-05-31T02:18:46.094Z,25.80
2023-05-31T02:23:49.003Z,25.60
2023-05-31T02:28:53.277Z,25.60
2023-05-31T02:33:56.552Z,25.60
2023-05-31T02:38:59.626Z,25.60
2023-05-31T02:44:03.839Z,25.60
2023-05-31T02:49:08.299Z,25.50
2023-05-31T02:54:11.201Z,25.50
2023-05-31T02:59:16.285Z,25.50
2023-05-31T03:04:19.183Z,25.50
2023-05-31T03:09:22.086Z,25.40
2023-05-31T03:14:26.428Z,25.40
2023-05-31T03:19:29.676Z,25.30
2023-05-31T03:24:32.626Z,25.40
2023-05-31T03:29:39.761Z,25.30
2023-05-31T03:34:42.704Z,25.30
2023-05-31T03:39:45.872Z,25.30
2023-05-31T03:44:50.143Z,25.30
2023-05-31T03:49:53.172Z,25.20
2023-05-31T03:54:56.470Z,25.20
2023-05-31T04:00:01.384Z,25.10
2023-05-31T04:05:05.306Z,25.20
2023-05-31T04:10:10.400Z,25.10
2023-05-31T04:15:14.897Z,25.20
2023-05-31T04:20:19.894Z,25.10
2023-05-31T04:25:23.740Z,25.10
2023-05-31T04:30:28.538Z,25.00
2023-05-31T04:35:32.638Z,25.00
2023-05-31T04:40:35.643Z,25.00
2023-05-31T04:45:41.891Z,25.00
2023-05-31T04:50:45.013Z,25.10
2023-05-31T04:55:47.858Z,25.00
2023-05-31T05:00:52.330Z,25.00
2023-05-31T05:05:58.173Z,25.00
2023-05-31T05:11:01.276Z,25.00
2023-05-31T05:16:05.997Z,25.00
2023-05-31T05:21:09.408Z,25.10
2023-05-31T05:26:12.536Z,25.00
2023-05-31T05:31:17.047Z,24.90
2023-05-31T05:36:20.271Z,24.90
2023-05-31T05:41:23.296Z,24.90
2023-05-31T05:46:27.497Z,25.00
2023-05-31T05:51:30.382Z,24.90
2023-05-31T05:56:33.422Z,25.00
2023-05-31T06:01:37.748Z,25.00
2023-05-31T06:06:40.630Z,25.00
2023-05-31T06:11:43.562Z,25.00
2023-05-31T06:16:47.780Z,25.00
2023-05-31T06:21:51.131Z,25.00
2023-05-31T06:26:54.031Z,25.00
2023-05-31T06:31:58.377Z,25.10
2023-05-31T06:37:02.731Z,25.00
2023-05-31T06:42:06.410Z,25.10
2023-05-31T06:47:11.017Z,25.10
2023-05-31T06:52:14.444Z,25.10
2023-05-31T06:57:17.435Z,25.10
2023-05-31T07:02:21.681Z,25.10
2023-05-31T07:07:24.592Z,25.30
2023-05-31T07:12:27.434Z,25.20
2023-05-31T07:17:31.709Z,25.20
2023-05-31T07:22:34.617Z,25.30
2023-05-31T07:27:38.537Z,25.20
2023-05-31T07:32:43.119Z,25.30
2023-05-31T07:37:46.047Z,25.20
2023-05-31T07:42:48.971Z,25.30
2023-05-31T07:47:53.699Z,25.40
2023-05-31T07:52:56.643Z,25.40
2023-05-31T07:58:03.520Z,25.40
2023-05-31T08:03:08.120Z,25.40
2023-05-31T08:08:11.331Z,25.40
2023-05-31T08:13:14.294Z,25.40
2023-05-31T08:18:19.103Z,25.40
2023-05-31T08:23:22.744Z,25.40
2023-05-31T08:28:26.198Z,25.50
2023-05-31T08:33:31.775Z,25.50
2023-05-31T08:38:37.869Z,25.50
2023-05-31T08:43:41.458Z,25.50
2023-05-31T08:48:52.008Z,25.50
2023-05-31T08:53:55.481Z,25.50
2023-05-31T08:58:59.262Z,25.50
2023-05-31T09:04:06.463Z,25.60
2023-05-31T09:09:10.051Z,25.60
2023-05-31T09:14:13.322Z,25.60
2023-05-31T09:19:18.501Z,25.60
2023-05-31T09:24:21.865Z,25.60
2023-05-31T09:29:24.811Z,25.60
2023-05-31T09:34:30.471Z,25.60
2023-05-31T09:39:33.443Z,25.70
2023-05-31T09:44:36.794Z,25.70
2023-05-31T09:49:41.117Z,25.70
2023-05-31T09:54:44.068Z,25.80
2023-05-31T09:59:47.708Z,25.70
2023-05-31T10:04:52.507Z,25.80
2023-05-31T10:09:55.381Z,25.80
2023-05-31T10:15:02.668Z,25.80
2023-05-31T10:20:09.119Z,25.80
2023-05-31T10:25:14.359Z,25.80
2023-05-31T10:30:22.267Z,25.80
2023-05-31T10:35:28.151Z,25.80
2023-05-31T10:40:36.325Z,25.80
2023-05-31T10:45:41.734Z,25.80
2023-05-31T10:50:57.192Z,25.90
2023-05-31T10:56:04.453Z,25.90
2023-05-31T11:01:09.270Z,25.90
2023-05-31T11:06:15.381Z,26.00
2023-05-31T11:11:28.809Z,26.00
2023-05-31T11:16:34.287Z,26.00
2023-05-31T11:21:51.703Z,26.00
2023-05-31T11:26:54.928Z,26.00
2023-05-31T11:32:02.535Z,26.00
2023-05-31T11:37:07.155Z,26.00
2023-05-31T11:42:10.117Z,26.20
2023-05-31T11:47:19.613Z,26.20
2023-05-31T11:52:24.130Z,26.40
2023-05-31T11:57:27.440Z,26.40
2023-05-31T12:02:30.568Z,26.50
2023-05-31T12:07:34.893Z,26.50
2023-05-31T12:12:37.952Z,26.50
2023-05-31T12:17:41.367Z,26.50
2023-05-31T12:22:45.757Z,26.50
2023-05-31T12:27:48.735Z,26.50
2023-05-31T12:32:51.612Z,26.60
2023-05-31T12:37:56.185Z,26.50
2023-05-31T12:43:02.128Z,26.60
2023-05-31T12:48:05.683Z,26.50
2023-05-31T12:53:10.162Z,26.70
2023-05-31T12:58:14.310Z,26.70
2023-05-31T13:03:17.346Z,26.60
2023-05-31T13:08:21.778Z,26.70
2023-05-31T13:13:24.650Z,26.70
2023-05-31T13:18:28.327Z,26.80
2023-05-31T13:23:32.539Z,26.80
2023-05-31T13:28:35.490Z,26.70
2023-05-31T13:33:38.480Z,26.70
2023-05-31T13:38:42.856Z,26.80
2023-05-31T13:43:46.011Z,26.80
2023-05-31T13:48:49.049Z,26.70
2023-05-31T13:53:53.253Z,26.80
2023-05-31T13:58:56.133Z,26.80
2023-05-31T14:03:59.045Z,26.90
2023-05-31T14:09:03.329Z,26.90
2023-05-31T14:14:06.828Z,27.00
2023-05-31T14:19:09.738Z,27.10
2023-05-31T14:24:15.887Z,27.10
2023-05-31T14:29:20.032Z,27.20
2023-05-31T14:34:22.948Z,27.30
2023-05-31T14:39:28.042Z,27.50
2023-05-31T14:44:31.025Z,28.00
2023-05-31T14:49:34.661Z,29.40
2023-05-31T14:54:39.261Z,31.10
2023-05-31T14:59:42.095Z,32.30
2023-05-31T15:04:46.193Z,33.10
2023-05-31T15:09:50.868Z,33.80
2023-05-31T15:14:53.766Z,34.00
2023-05-31T15:19:56.725Z,33.80
2023-05-31T15:25:01.338Z,34.50
2023-05-31T15:30:04.783Z,34.20
2023-05-31T15:35:08.313Z,34.30
2023-05-31T15:40:13.093Z,33.60
2023-05-31T15:45:16.432Z,33.50
2023-05-31T15:50:20.015Z,33.60
2023-05-31T15:55:25.140Z,34.90
2023-05-31T16:00:28.018Z,35.60
2023-05-31T16:05:31.666Z,36.20
2023-05-31T16:10:35.920Z,36.60
2023-05-31T16:15:38.841Z,35.60
2023-05-31T16:20:42.751Z,33.90
2023-05-31T16:25:46.983Z,34.20
2023-05-31T16:30:49.916Z,34.70
2023-05-31T16:35:52.783Z,35.20
2023-05-31T16:40:57.077Z,35.50
2023-05-31T16:46:02.528Z,34.60
2023-05-31T16:51:05.712Z,31.80
2023-05-31T16:56:10.176Z,30.60
2023-05-31T17:01:13.032Z,30.00
2023-05-31T17:06:16.251Z,29.60
2023-05-31T17:11:20.517Z,29.40
2023-05-31T17:16:23.774Z,29.30
2023-05-31T17:21:26.698Z,29.10
2023-05-31T17:26:30.989Z,29.10
2023-05-31T17:31:33.971Z,29.00
2023-05-31T17:36:37.834Z,28.90
2023-05-31T17:41:43.038Z,28.80
2023-05-31T17:46:46.246Z,28.60
2023-05-31T17:51:49.246Z,28.50
2023-05-31T17:56:53.488Z,28.40
2023-05-31T18:01:57.232Z,28.30
2023-05-31T18:07:00.391Z,28.20
2023-05-31T18:12:04.954Z,28.10
2023-05-31T18:17:07.993Z,28.20
2023-05-31T18:22:11.053Z,28.00
2023-05-31T18:27:16.669Z,28.00
2023-05-31T18:32:20.466Z,28.00
2023-05-31T18:37:23.740Z,27.90
2023-05-31T18:42:27.928Z,27.80
2023-05-31T18:47:32.004Z,27.80
2023-05-31T18:52:35.486Z,27.70
2023-05-31T18:57:40.650Z,27.70
2023-05-31T19:02:43.527Z,27.60
2023-05-31T19:07:46.426Z,27.50
2023-05-31T19:12:51.263Z,27.50
2023-05-31T19:17:56.876Z,27.40
2023-05-31T19:23:10.527Z,27.40
2023-05-31T19:28:16.272Z,27.40
2023-05-31T19:33:20.156Z,27.30
2023-05-31T19:38:30.188Z,27.30
2023-05-31T19:43:35.541Z,27.30
2023-05-31T19:48:38.392Z,27.20
2023-05-31T19:53:41.316Z,27.20
2023-05-31T19:58:45.996Z,27.10
2023-05-31T20:03:49.015Z,27.10
2023-05-31T20:08:52.029Z,27.10
2023-05-31T20:13:56.326Z,27.10
2023-05-31T20:18:59.571Z,27.00
2023-05-31T20:24:02.580Z,27.00
2023-05-31T20:29:06.836Z,27.00
2023-05-31T20:34:09.720Z,27.00
2023-05-31T20:39:12.580Z,27.00
2023-05-31T20:44:17.404Z,26.90
2023-05-31T20:49:20.779Z,26.90
2023-05-31T20:54:25.267Z,26.90
2023-05-31T20:59:30.523Z,26.80
2023-05-31T21:04:34.216Z,26.80
2023-05-31T21:09:37.073Z,26.70
2023-05-31T21:14:41.310Z,26.70
2023-05-31T21:19:44.225Z,26.70
2023-05-31T21:24:47.046Z,26.70
2023-05-31T21:29:52.603Z,26.60
2023-05-31T21:34:55.542Z,26.40
2023-05-31T21:39:58.413Z,26.50
2023-05-31T21:45:03.351Z,26.50
2023-05-31T21:50:07.179Z,26.40
2023-05-31T21:55:11.535Z,26.40
2023-05-31T22:00:16.655Z,26.40
2023-05-31T22:05:21.004Z,26.40
2023-05-31T22:10:23.981Z,26.30
2023-05-31T22:15:28.233Z,26.30
2023-05-31T22:20:35.183Z,26.40
2023-05-31T22:25:38.113Z,26.30
2023-05-31T22:30:42.349Z,26.30
2023-05-31T22:35:45.368Z,26.30
2023-05-31T22:40:49.166Z,26.40
2023-05-31T22:45:53.413Z,26.20
2023-05-31T22:50:59.324Z,26.30
2023-05-31T22:56:03.407Z,26.20
2023-05-31T23:01:08.173Z,26.20
2023-05-31T23:06:13.480Z,26.20
2023-05-31T23:11:17.791Z,26.20
2023-05-31T23:16:22.371Z,26.20
2023-05-31T23:21:28.047Z,26.10
2023-05-31T23:26:31.043Z,26.10
2023-05-31T23:31:35.454Z,26.10
2023-05-31T23:36:38.378Z,26.00
2023-05-31T23:41:42.321Z,26.10
2023-05-31T23:46:46.518Z,25.90
2023-05-31T23:51:49.413Z,26.00
2023-05-31T23:56:52.323Z,26.00
